Time;durP1;ratioP1;P1;durP2;ratioP2;P2;SDS_P1;SDS_P2;PMS_P1;PMS_P2;Temp;Humidity;BMP_temperature;BMP_pressure;BME280_temperature;BME280_humidity;BME280_pressure;Samples;Min_cycle;Max_cycle;Signal;HPM_P1;HPM_P2
2021/05/07 00:00:59;;;;;;;7.72;5.03;;;8.20;99.90;;;;;;5042772;28;20523;-78
2021/05/07 00:03:25;;;;;;;8.07;5.35;;;8.30;99.90;;;;;;5031405;28;20033;-77
2021/05/07 00:05:55;;;;;;;9.07;5.80;;;8.20;99.90;;;;;;5046944;28;20033;-76
2021/05/07 00:08:33;;;;;;;8.57;5.73;;;8.20;99.90;;;;;;5039010;28;20037;-79
2021/05/07 00:11:04;;;;;;;8.18;6.10;;;8.20;99.90;;;;;;5041237;28;20033;-78
2021/05/07 00:13:30;;;;;;;;;;;8.20;99.90;;;;;;5044028;28;20032;-78
2021/05/07 00:15:56;;;;;;;8.80;6.25;;;8.20;99.90;;;;;;5025189;28;19916;-77
2021/05/07 00:18:22;;;;;;;7.63;5.82;;;8.10;99.90;;;;;;5032600;28;20037;-78
2021/05/07 00:20:47;;;;;;;12.60;6.30;;;8.20;99.90;;;;;;5024280;28;20112;-78
2021/05/07 00:23:13;;;;;;;6.68;5.35;;;8.30;99.90;;;;;;5042234;28;20045;-78
2021/05/07 00:25:39;;;;;;;8.88;5.82;;;8.20;99.90;;;;;;5027109;28;20036;-78
2021/05/07 00:28:10;;;;;;;9.85;6.72;;;8.30;99.90;;;;;;5040754;28;20025;-79
2021/05/07 00:30:37;;;;;;;8.50;5.85;;;8.10;99.90;;;;;;5008997;28;20033;-77
2021/05/07 00:33:03;;;;;;;8.35;5.90;;;8.10;99.90;;;;;;5031243;28;20483;-77
2021/05/07 00:35:29;;;;;;;8.73;6.10;;;8.10;99.90;;;;;;5044514;28;20021;-77
2021/05/07 00:37:54;;;;;;;9.38;5.95;;;8.20;99.90;;;;;;5025163;28;20027;-77
2021/05/07 00:40:21;;;;;;;7.60;5.78;;;8.10;99.90;;;;;;5031964;28;20024;-78
2021/05/07 00:42:47;;;;;;;8.77;4.78;;;8.10;99.90;;;;;;5036432;28;20463;-78
2021/05/07 00:45:14;;;;;;;6.22;4.88;;;8.20;99.90;;;;;;5023735;28;20064;-76
2021/05/07 00:47:57;;;;;;;5.82;4.57;;;8.20;99.90;;;;;;5025423;28;20035;-76
2021/05/07 00:50:25;;;;;;;5.63;4.55;;;8.20;99.90;;;;;;5043158;28;20167;-78
2021/05/07 00:52:53;;;;;;;5.53;4.15;;;8.20;99.90;;;;;;5022131;28;20041;-79
2021/05/07 00:55:18;;;;;;;5.40;4.05;;;8.20;99.90;;;;;;5023993;28;20040;-78
2021/05/07 00:57:44;;;;;;;6.03;3.95;;;8.20;99.90;;;;;;5040533;28;20029;-76
2021/05/07 01:00:10;;;;;;;6.07;4.50;;;8.20;99.90;;;;;;5027739;28;20462;-77
2021/05/07 01:02:36;;;;;;;5.20;3.88;;;8.10;99.90;;;;;;5025988;28;20056;-78
2021/05/07 01:05:03;;;;;;;6.22;3.78;;;8.10;99.90;;;;;;5051908;28;20029;-78
2021/05/07 01:07:29;;;;;;;6.30;4.90;;;8.20;99.90;;;;;;5020599;28;20029;-76
2021/05/07 01:09:57;;;;;;;5.68;4.30;;;8.20;99.90;;;;;;5030920;28;20025;-77
2021/05/07 01:12:23;;;;;;;6.32;4.07;;;8.20;99.90;;;;;;5034157;28;20026;-77
2021/05/07 01:15:10;;;;;;;5.32;3.90;;;8.10;99.90;;;;;;5029201;28;20048;-77
2021/05/07 01:17:39;;;;;;;5.20;3.83;;;8.10;99.90;;;;;;5026542;28;20056;-79
2021/05/07 01:20:20;;;;;;;5.93;4.07;;;8.50;99.90;;;;;;5014989;28;20044;-77
2021/05/07 01:22:48;;;;;;;5.20;3.92;;;8.10;99.90;;;;;;5040355;28;20056;-79
2021/05/07 01:25:25;;;;;;;5.38;3.50;;;8.10;99.90;;;;;;5034902;28;20124;-77
2021/05/07 01:27:59;;;;;;;7.15;3.85;;;8.20;99.90;;;;;;5023760;28;20044;-77
2021/05/07 01:30:30;;;;;;;4.82;3.83;;;8.10;99.90;;;;;;5030582;28;20119;-78
2021/05/07 01:32:56;;;;;;;6.82;4.28;;;8.10;99.90;;;;;;5036991;28;20064;-77
2021/05/07 01:35:26;;;;;;;4.95;3.97;;;8.00;99.90;;;;;;5028125;28;20036;-79
2021/05/07 01:37:55;;;;;;;5.40;3.63;;;8.00;99.90;;;;;;5017696;28;20464;-78
2021/05/07 01:40:30;;;;;;;4.95;3.85;;;8.00;99.90;;;;;;5046003;28;20032;-78
2021/05/07 01:42:59;;;;;;;7.63;4.18;;;8.00;99.90;;;;;;5042370;28;20115;-77
2021/05/07 01:45:31;;;;;;;5.22;3.65;;;8.00;99.90;;;;;;5030761;28;20112;-78
2021/05/07 01:47:57;;;;;;;4.95;3.95;;;8.00;99.90;;;;;;5010946;28;20033;-77
2021/05/07 01:50:28;;;;;;;6.60;4.38;;;8.00;99.90;;;;;;5046660;28;20035;-77
2021/05/07 01:52:55;;;;;;;10.15;6.00;;;8.00;99.90;;;;;;5046190;28;20034;-78
2021/05/07 01:55:24;;;;;;;7.45;3.95;;;8.00;99.90;;;;;;5030223;28;20029;-78
2021/05/07 01:57:49;;;;;;;4.55;3.40;;;8.00;99.90;;;;;;5014557;28;20084;-77
2021/05/07 02:00:21;;;;;;;4.93;3.60;;;7.90;99.90;;;;;;5030018;28;20025;-77
2021/05/07 02:02:47;;;;;;;5.97;4.10;;;8.00;99.90;;;;;;5010798;28;20033;-78
2021/05/07 02:05:14;;;;;;;5.97;3.85;;;8.00;99.90;;;;;;5028071;28;20044;-77
2021/05/07 02:07:42;;;;;;;6.90;4.53;;;8.00;99.90;;;;;;5024182;28;20047;-77
2021/05/07 02:10:10;;;;;;;5.63;4.18;;;8.00;99.90;;;;;;5025879;28;20073;-78
2021/05/07 02:12:36;;;;;;;7.00;4.90;;;8.00;99.90;;;;;;5041520;28;20036;-77
2021/05/07 02:15:07;;;;;;;6.15;4.57;;;8.00;99.90;;;;;;5050332;28;20042;-77
2021/05/07 02:17:33;;;;;;;6.20;4.53;;;8.00;99.90;;;;;;5027941;28;20020;-77
2021/05/07 02:19:58;;;;;;;6.20;4.30;;;8.00;99.90;;;;;;5030479;28;20083;-79
2021/05/07 02:22:24;;;;;;;6.95;4.90;;;;;;;;;;5031749;28;20033;-75
2021/05/07 02:24:50;;;;;;;7.40;4.70;;;8.10;99.90;;;;;;5029735;28;20408;-81
2021/05/07 02:27:16;;;;;;;7.30;4.10;;;;;;;;;;5023974;28;20029;-77
2021/05/07 02:29:41;;;;;;;7.40;4.68;;;8.00;99.90;;;;;;5026732;28;20111;-77
2021/05/07 02:32:07;;;;;;;7.15;4.32;;;8.00;99.90;;;;;;5043918;28;20028;-77
2021/05/07 02:34:33;;;;;;;7.70;4.65;;;10.00;99.90;;;;;;5032256;28;20402;-78
2021/05/07 02:36:58;;;;;;;7.95;5.22;;;8.00;99.90;;;;;;5054012;28;20179;-78
2021/05/07 02:39:24;;;;;;;5.35;4.15;;;;;;;;;;5031405;28;20025;-77
2021/05/07 02:41:50;;;;;;;6.28;5.07;;;8.00;99.90;;;;;;5042384;28;20034;-77
2021/05/07 02:44:15;;;;;;;6.05;4.45;;;10.70;99.90;;;;;;5032543;28;20060;-76
2021/05/07 02:46:41;;;;;;;7.25;4.85;;;;;;;;;;5028803;28;20105;-79
2021/05/07 02:49:07;;;;;;;8.02;4.80;;;8.00;99.90;;;;;;5051604;28;20029;-79
2021/05/07 02:51:33;;;;;;;7.13;4.50;;;8.00;99.90;;;;;;5036852;28;20123;-77
2021/05/07 02:54:01;;;;;;;6.20;4.70;;;8.00;99.90;;;;;;5035226;28;20083;-77
2021/05/07 02:56:27;;;;;;;7.35;4.88;;;8.00;99.90;;;;;;5043868;28;20103;-77
2021/05/07 02:58:52;;;;;;;5.93;4.80;;;7.90;99.90;;;;;;5034465;28;20108;-79
2021/05/07 03:01:18;;;;;;;6.90;5.05;;;7.90;99.90;;;;;;5029742;28;20029;-78
2021/05/07 03:03:44;;;;;;;6.68;5.15;;;7.90;99.90;;;;;;5029512;28;20040;-78
2021/05/07 03:06:10;;;;;;;6.40;5.10;;;;;;;;;;5047547;28;20059;-78
2021/05/07 03:08:37;;;;;;;6.43;4.80;;;7.90;99.90;;;;;;5035298;28;20075;-78
2021/05/07 03:11:03;;;;;;;7.57;5.25;;;7.90;99.90;;;;;;5028794;28;20293;-77
2021/05/07 03:13:29;;;;;;;8.25;5.28;;;7.90;99.90;;;;;;5050528;28;20645;-78
2021/05/07 03:15:55;;;;;;;9.32;5.00;;;;;;;;;;5030231;28;20152;-80
2021/05/07 03:18:21;;;;;;;7.38;4.90;;;;;;;;;;5034806;28;20408;-78
2021/05/07 03:20:48;;;;;;;7.13;5.40;;;7.90;99.90;;;;;;5029700;28;20029;-80
2021/05/07 03:23:14;;;;;;;7.10;5.90;;;7.90;99.90;;;;;;5050383;28;20025;-79
2021/05/07 03:25:40;;;;;;;8.85;6.18;;;7.90;99.90;;;;;;5029994;28;20037;-77
2021/05/07 03:28:06;;;;;;;6.80;5.13;;;8.00;99.90;;;;;;5048548;28;20376;-80
2021/05/07 03:30:33;;;;;;;8.27;5.97;;;8.00;99.90;;;;;;5031027;28;20021;-76
2021/05/07 03:33:00;;;;;;;7.25;5.65;;;7.90;99.90;;;;;;5029936;28;20487;-77
2021/05/07 03:35:26;;;;;;;7.88;6.25;;;11.40;99.90;;;;;;5044902;28;20037;-78
2021/05/07 03:37:52;;;;;;;9.15;5.80;;;;;;;;;;5031482;28;20028;-76
2021/05/07 03:40:17;;;;;;;6.22;4.90;;;;;;;;;;5047745;28;20029;-79
2021/05/07 03:42:45;;;;;;;7.18;5.10;;;7.80;99.90;;;;;;5027508;28;20036;-76
2021/05/07 03:45:12;;;;;;;6.07;5.03;;;7.80;99.90;;;;;;5028126;28;20040;-77
2021/05/07 03:47:38;;;;;;;6.70;4.93;;;7.80;99.90;;;;;;5048916;28;20032;-79
2021/05/07 03:50:04;;;;;;;7.68;4.82;;;7.80;99.90;;;;;;5032505;28;20300;-79
2021/05/07 03:52:30;;;;;;;7.35;5.22;;;7.80;99.90;;;;;;5021777;28;20033;-80
2021/05/07 03:54:58;;;;;;;8.73;5.07;;;7.60;99.90;;;;;;5050552;28;20036;-78
2021/05/07 03:57:25;;;;;;;11.13;7.22;;;7.70;99.90;;;;;;5028898;28;20021;-78
2021/05/07 03:59:51;;;;;;;9.15;6.05;;;7.70;99.90;;;;;;5026674;28;20051;-77
2021/05/07 04:02:17;;;;;;;8.35;5.53;;;;;;;;;;5046947;28;20485;-77
2021/05/07 04:04:44;;;;;;;9.73;6.07;;;;;;;;;;5052685;28;20036;-77
2021/05/07 04:07:10;;;;;;;9.07;5.68;;;7.70;99.90;;;;;;5046732;28;20096;-77
2021/05/07 04:09:40;;;;;;;9.70;5.30;;;7.70;99.90;;;;;;5045181;28;20028;-77
2021/05/07 04:12:23;;;;;;;7.57;5.60;;;7.60;99.90;;;;;;5026025;28;20036;-77
2021/05/07 04:14:49;;;;;;;8.90;5.75;;;7.60;99.90;;;;;;5034685;28;20569;-77
2021/05/07 04:17:14;;;;;;;9.75;6.00;;;7.60;99.90;;;;;;5028554;28;20069;-79
2021/05/07 04:19:40;;;;;;;8.18;6.00;;;7.60;99.90;;;;;;5052021;28;20036;-77
2021/05/07 04:22:08;;;;;;;8.88;6.50;;;7.60;99.90;;;;;;5048690;28;20080;-77
2021/05/07 04:24:34;;;;;;;11.00;6.82;;;;;;;;;;5051974;28;20028;-79
2021/05/07 04:27:00;;;;;;;10.68;7.05;;;7.60;99.90;;;;;;5040102;28;20044;-78
2021/05/07 04:29:26;;;;;;;10.93;6.85;;;7.60;99.90;;;;;;5030331;28;20037;-79
2021/05/07 04:31:52;;;;;;;10.18;6.32;;;7.50;99.90;;;;;;5033529;28;20546;-78
2021/05/07 04:34:18;;;;;;;10.63;6.65;;;;;;;;;;5034370;28;20033;-79
2021/05/07 04:36:44;;;;;;;10.27;6.88;;;7.50;99.90;;;;;;5039087;28;20478;-77
2021/05/07 04:39:10;;;;;;;9.55;7.07;;;;;;;;;;5028452;28;20125;-77
2021/05/07 04:41:35;;;;;;;8.65;6.65;;;7.50;99.90;;;;;;5046553;28;20021;-77
2021/05/07 04:44:05;;;;;;;13.25;7.05;;;7.50;99.90;;;;;;5034283;28;20068;-78
2021/05/07 04:46:31;;;;;;;9.35;6.60;;;;;;;;;;5045499;28;20063;-79
2021/05/07 04:48:57;;;;;;;11.00;6.60;;;7.50;99.90;;;;;;5042688;28;20032;-79
2021/05/07 04:51:23;;;;;;;9.63;6.60;;;;;;;;;;5036755;28;20083;-78
2021/05/07 04:53:49;;;;;;;11.65;6.97;;;7.50;99.90;;;;;;5043032;28;20402;-79
2021/05/07 04:56:15;;;;;;;17.13;10.75;;;;;;;;;;5030640;28;20037;-77
2021/05/07 04:58:40;;;;;;;8.63;6.40;;;7.50;99.90;;;;;;5037514;28;20659;-78
2021/05/07 05:01:06;;;;;;;10.50;6.20;;;7.50;99.90;;;;;;5031036;28;20021;-78
2021/05/07 05:03:32;;;;;;;9.82;6.90;;;;;;;;;;5051660;28;20028;-79
2021/05/07 05:05:58;;;;;;;17.23;7.00;;;7.50;99.90;;;;;;5060116;28;20175;-78
2021/05/07 05:08:24;;;;;;;8.88;5.35;;;7.60;99.90;;;;;;5046514;28;20032;-78
2021/05/07 05:10:55;;;;;;;11.82;6.78;;;7.50;99.90;;;;;;5052836;28;20040;-78
2021/05/07 05:13:21;;;;;;;10.07;6.60;;;;;;;;;;5035953;28;20041;-78
2021/05/07 05:15:49;;;;;;;9.65;5.82;;;7.50;99.90;;;;;;5037845;28;20032;-77
2021/05/07 05:18:24;;;;;;;10.00;5.95;;;9.50;99.90;;;;;;5068590;28;20055;-77
2021/05/07 05:20:55;;;;;;;11.90;6.35;;;8.00;99.90;;;;;;5031571;28;20029;-78
2021/05/07 05:23:23;;;;;;;9.10;5.68;;;7.70;99.90;;;;;;5035957;28;20029;-77
2021/05/07 05:25:49;;;;;;;10.40;6.00;;;7.80;99.90;;;;;;5057485;28;20075;-78
2021/05/07 05:28:15;;;;;;;9.82;6.22;;;7.70;99.90;;;;;;5050610;28;20048;-80
2021/05/07 05:30:43;;;;;;;11.80;6.75;;;8.40;99.90;;;;;;5052479;28;20037;-81
2021/05/07 05:33:08;;;;;;;10.07;6.20;;;9.10;99.90;;;;;;5037297;28;20029;-77
2021/05/07 05:35:34;;;;;;;9.23;5.40;;;9.40;99.90;;;;;;5040658;28;20024;-75
2021/05/07 05:38:00;;;;;;;10.52;5.90;;;10.10;99.30;;;;;;5035202;28;20041;-77
2021/05/07 05:40:26;;;;;;;7.22;5.22;;;12.60;99.30;;;;;;5030813;28;20470;-77
2021/05/07 05:42:52;;;;;;;10.50;5.80;;;;;;;;;;5030295;28;20025;-77
2021/05/07 05:45:17;;;;;;;7.80;5.10;;;11.00;97.10;;;;;;5029569;28;20060;-79
2021/05/07 05:47:43;;;;;;;9.07;5.35;;;11.10;96.40;;;;;;5032897;28;20075;-78
2021/05/07 05:50:10;;;;;;;7.90;5.35;;;11.20;96.60;;;;;;5037789;28;20108;-78
2021/05/07 05:52:36;;;;;;;8.13;4.97;;;11.50;95.90;;;;;;5046813;28;20028;-77
2021/05/07 05:55:01;;;;;;;6.88;5.38;;;13.50;96.30;;;;;;5028658;28;20029;-80
2021/05/07 05:57:27;;;;;;;8.45;5.88;;;11.50;95.10;;;;;;5044599;28;20028;-78
2021/05/07 05:59:52;;;;;;;10.27;5.60;;;11.30;95.40;;;;;;5050011;28;20048;-76
2021/05/07 06:02:19;;;;;;;9.32;5.28;;;11.20;95.70;;;;;;5019681;28;20021;-77
2021/05/07 06:04:47;;;;;;;7.35;5.53;;;11.30;95.90;;;;;;5033995;28;20032;-77
2021/05/07 06:07:13;;;;;;;9.48;5.60;;;10.90;96.50;;;;;;5036779;28;20033;-78
2021/05/07 06:09:38;;;;;;;9.25;5.82;;;10.80;97.00;;;;;;5031403;28;20060;-78
2021/05/07 06:12:07;;;;;;;9.50;6.85;;;10.40;97.80;;;;;;5042074;28;20549;-76
2021/05/07 06:14:33;;;;;;;9.18;6.45;;;10.40;98.20;;;;;;5032115;28;20034;-79
2021/05/07 06:17:01;;;;;;;9.43;6.97;;;10.30;98.30;;;;;;5049711;28;20036;-78
2021/05/07 06:19:27;;;;;;;12.02;7.85;;;10.10;98.30;;;;;;5025788;28;20544;-77
2021/05/07 06:21:53;;;;;;;12.77;7.75;;;;;;;;;;5041237;28;20032;-79
2021/05/07 06:24:18;;;;;;;14.35;9.45;;;9.80;98.20;;;;;;5037930;28;20033;-80
2021/05/07 06:26:44;;;;;;;15.40;8.77;;;9.60;98.60;;;;;;5040820;28;20045;-78
2021/05/07 06:29:09;;;;;;;12.48;7.80;;;9.50;99.50;;;;;;5033051;28;20071;-77
2021/05/07 06:31:35;;;;;;;11.13;7.95;;;9.40;99.60;;;;;;5026482;28;21480;-77
2021/05/07 06:34:00;;;;;;;12.48;8.02;;;9.40;99.30;;;;;;5034308;28;20412;-77
2021/05/07 06:36:28;;;;;;;13.38;8.20;;;9.30;99.30;;;;;;5022384;28;20029;-77
2021/05/07 06:38:54;;;;;;;10.68;7.47;;;9.20;99.10;;;;;;5039053;28;20048;-76
2021/05/07 06:41:21;;;;;;;11.02;7.63;;;9.10;99.50;;;;;;5045057;28;20055;-77
2021/05/07 06:43:48;;;;;;;13.18;6.97;;;9.10;99.40;;;;;;5044540;28;20112;-78
2021/05/07 06:46:13;;;;;;;10.95;7.57;;;9.20;98.90;;;;;;5027881;28;20025;-78
2021/05/07 06:48:41;;;;;;;11.18;6.93;;;9.20;98.90;;;;;;5034910;28;20033;-77
2021/05/07 06:51:07;;;;;;;12.05;7.00;;;9.30;99.40;;;;;;5056282;28;20402;-79
2021/05/07 06:53:37;;;;;;;13.82;7.50;;;12.10;99.80;;;;;;5039620;28;20025;-78
2021/05/07 06:56:03;;;;;;;14.17;9.40;;;;;;;;;;5052742;28;20403;-78
2021/05/07 06:58:30;;;;;;;12.35;8.73;;;9.40;99.10;;;;;;5027058;28;20276;-77
2021/05/07 07:00:56;;;;;;;11.10;7.78;;;11.20;99.70;;;;;;5037097;28;20021;-77
2021/05/07 07:03:22;;;;;;;14.55;9.23;;;9.40;97.80;;;;;;5022405;28;20088;-79
2021/05/07 07:05:48;;;;;;;11.05;8.30;;;12.20;99.30;;;;;;5032554;28;20083;-78
2021/05/07 07:08:14;;;;;;;13.48;8.50;;;9.50;98.40;;;;;;5031407;28;20056;-80
2021/05/07 07:10:42;;;;;;;11.20;7.47;;;;;;;;;;5039564;28;20068;-78
2021/05/07 07:13:07;;;;;;;10.32;7.65;;;9.60;97.20;;;;;;5045962;28;20060;-79
2021/05/07 07:15:33;;;;;;;9.98;7.57;;;9.50;97.60;;;;;;5030301;28;20056;-79
2021/05/07 07:17:59;;;;;;;12.52;7.30;;;9.70;97.50;;;;;;5027531;28;20055;-77
2021/05/07 07:20:30;;;;;;;9.75;7.20;;;9.60;97.00;;;;;;5049317;28;20135;-79
2021/05/07 07:22:56;;;;;;;9.63;6.97;;;9.70;96.10;;;;;;5057339;28;20028;-78
2021/05/07 07:25:21;;;;;;;10.35;7.40;;;9.70;96.40;;;;;;5028979;28;20526;-79
2021/05/07 07:27:47;;;;;;;9.20;6.60;;;;;;;;;;5026910;28;20064;-76
2021/05/07 07:30:14;;;;;;;9.88;6.72;;;9.90;95.20;;;;;;5021350;28;20059;-76
2021/05/07 07:32:39;;;;;;;9.85;6.25;;;9.80;95.10;;;;;;5034891;28;20036;-76
2021/05/07 07:35:06;;;;;;;9.32;6.43;;;9.90;95.20;;;;;;5042677;28;20033;-77
2021/05/07 07:37:34;;;;;;;10.73;6.65;;;9.90;94.00;;;;;;5048798;28;20025;-76
2021/05/07 07:39:59;;;;;;;9.05;5.95;;;9.90;93.70;;;;;;5042511;28;20036;-78
2021/05/07 07:42:25;;;;;;;10.27;6.43;;;;;;;;;;5037065;28;20021;-79
2021/05/07 07:44:51;;;;;;;10.50;6.68;;;10.10;91.20;;;;;;5025648;28;20040;-78
2021/05/07 07:47:16;;;;;;;8.45;6.20;;;12.10;92.30;;;;;;5021380;28;20048;-78
2021/05/07 07:49:42;;;;;;;12.68;6.63;;;10.20;91.60;;;;;;5039026;28;20083;-77
2021/05/07 07:52:09;;;;;;;10.38;6.45;;;10.20;91.20;;;;;;5031748;28;20032;-76
2021/05/07 07:54:34;;;;;;;10.63;6.93;;;10.40;91.20;;;;;;5044044;28;20566;-76
2021/05/07 07:57:00;;;;;;;9.27;6.38;;;;;;;;;;5021951;28;20140;-76
2021/05/07 07:59:26;;;;;;;7.18;5.63;;;10.40;91.50;;;;;;5038201;28;20024;-76
2021/05/07 08:01:51;;;;;;;9.38;6.47;;;10.50;90.90;;;;;;5025486;28;20160;-76
2021/05/07 08:04:17;;;;;;;11.13;6.40;;;10.60;90.80;;;;;;5023791;28;20065;-77
2021/05/07 08:06:44;;;;;;;11.02;7.10;;;10.80;90.60;;;;;;5037497;28;20038;-76
2021/05/07 08:09:10;;;;;;;10.50;6.20;;;10.80;90.80;;;;;;5045404;28;20028;-77
2021/05/07 08:11:36;;;;;;;10.40;6.15;;;10.90;90.50;;;;;;5046084;28;20433;-76
2021/05/07 08:14:03;;;;;;;8.90;5.95;;;11.10;88.30;;;;;;5018163;28;20082;-76
2021/05/07 08:16:31;;;;;;;9.20;5.90;;;11.20;86.60;;;;;;5020961;28;20043;-77
2021/05/07 08:18:57;;;;;;;8.90;6.32;;;11.20;86.80;;;;;;5039083;28;20044;-80
2021/05/07 08:21:24;;;;;;;9.77;5.93;;;11.30;87.50;;;;;;5023130;28;20025;-76
2021/05/07 08:23:51;;;;;;;12.02;5.55;;;11.40;86.50;;;;;;5037871;28;20049;-77
2021/05/07 08:26:17;;;;;;;10.23;5.85;;;11.50;84.10;;;;;;5039306;28;20025;-78
2021/05/07 08:28:43;;;;;;;10.63;6.60;;;11.50;82.50;;;;;;5042394;28;20036;-77
2021/05/07 08:31:09;;;;;;;13.40;6.05;;;12.80;83.60;;;;;;5022141;28;20164;-77
2021/05/07 08:33:34;;;;;;;7.90;5.15;;;11.50;82.60;;;;;;5042331;28;20112;-79
2021/05/07 08:36:00;;;;;;;9.20;5.20;;;;;;;;;;5024843;28;20036;-79
2021/05/07 08:38:26;;;;;;;8.50;4.95;;;11.80;82.50;;;;;;5026766;28;20031;-77
2021/05/07 08:40:52;;;;;;;6.72;4.97;;;11.90;76.60;;;;;;5041774;28;20273;-79
2021/05/07 08:43:17;;;;;;;9.88;5.53;;;12.00;75.90;;;;;;5023184;28;20410;-78
2021/05/07 08:45:43;;;;;;;9.82;5.95;;;12.10;76.80;;;;;;5037151;28;20040;-77
2021/05/07 08:48:12;;;;;;;9.05;5.47;;;12.20;74.90;;;;;;5023710;28;20032;-79
2021/05/07 08:50:38;;;;;;;7.80;5.50;;;12.30;74.50;;;;;;5023010;28;20030;-77
2021/05/07 08:53:04;;;;;;;7.88;5.60;;;12.40;71.20;;;;;;5053253;28;20039;-78
2021/05/07 08:55:30;;;;;;;8.32;5.35;;;12.60;70.10;;;;;;5055581;28;20150;-77
2021/05/07 08:57:55;;;;;;;6.82;4.45;;;12.50;67.80;;;;;;5042684;28;20045;-78
2021/05/07 09:00:21;;;;;;;8.00;4.70;;;14.30;69.10;;;;;;5025479;28;20107;-78
2021/05/07 09:02:47;;;;;;;7.10;4.97;;;12.50;67.90;;;;;;5041680;28;20484;-78
2021/05/07 09:05:13;;;;;;;7.32;4.90;;;12.60;69.80;;;;;;5024709;28;20025;-78
2021/05/07 09:07:39;;;;;;;8.88;4.72;;;12.70;70.40;;;;;;5034945;28;20056;-79
2021/05/07 09:10:06;;;;;;;7.03;4.93;;;;;;;;;;5039212;28;20399;-77
2021/05/07 09:12:40;;;;;;;8.05;4.68;;;12.50;67.50;;;;;;5042829;28;20032;-78
2021/05/07 09:15:09;;;;;;;6.32;3.90;;;12.50;67.90;;;;;;5025835;28;20029;-76
2021/05/07 09:17:37;;;;;;;6.20;3.70;;;12.50;63.30;;;;;;5042843;28;20029;-78
2021/05/07 09:20:03;;;;;;;7.03;3.50;;;12.60;62.00;;;;;;5026817;28;21223;-77
2021/05/07 09:22:28;;;;;;;7.47;3.58;;;12.50;62.10;;;;;;5024073;28;20029;-78
2021/05/07 09:25:07;;;;;;;6.63;3.97;;;14.40;64.00;;;;;;5022523;28;20044;-77
2021/05/07 09:27:33;;;;;;;7.78;4.22;;;12.10;65.70;;;;;;5040544;28;20127;-77
2021/05/07 09:30:01;;;;;;;8.35;4.47;;;12.00;67.00;;;;;;5027829;28;20066;-80
2021/05/07 09:32:31;;;;;;;7.47;3.95;;;12.10;69.40;;;;;;5038727;28;20031;-78
2021/05/07 09:35:12;;;;;;;6.68;3.67;;;12.10;69.50;;;;;;5041742;28;20033;-78
2021/05/07 09:37:39;;;;;;;9.90;4.63;;;12.40;69.20;;;;;;5031223;28;20021;-79
2021/05/07 09:40:11;;;;;;;4.00;2.30;;;12.60;63.00;;;;;;5028682;28;20044;-80
2021/05/07 09:42:37;;;;;;;7.57;3.53;;;12.50;62.80;;;;;;5027655;28;20028;-79
2021/05/07 09:45:03;;;;;;;7.93;3.45;;;12.70;64.30;;;;;;5046928;28;20025;-80
2021/05/07 09:47:33;;;;;;;6.65;3.22;;;12.60;64.70;;;;;;5045867;28;20033;-79
2021/05/07 09:50:05;;;;;;;6.57;3.63;;;14.90;68.30;;;;;;5028935;28;20033;-78
2021/05/07 09:52:30;;;;;;;6.68;3.70;;;12.80;67.40;;;;;;5026457;28;20323;-78
2021/05/07 09:54:56;;;;;;;6.05;3.42;;;14.50;68.80;;;;;;5029649;28;20025;-78
2021/05/07 09:57:22;;;;;;;6.13;3.53;;;15.00;70.20;;;;;;5031774;28;20112;-78
2021/05/07 09:59:48;;;;;;;7.00;3.13;;;13.20;68.50;;;;;;5041850;28;20095;-80
2021/05/07 10:02:14;;;;;;;5.43;3.08;;;;;;;;;;5027983;28;20304;-81
2021/05/07 10:04:40;;;;;;;4.75;2.40;;;13.30;64.40;;;;;;5032426;28;20044;-79
2021/05/07 10:07:07;;;;;;;6.63;2.75;;;13.70;63.00;;;;;;5028386;28;20021;-77
2021/05/07 10:09:33;;;;;;;6.32;2.55;;;16.20;62.40;;;;;;5051010;28;20023;-83
2021/05/07 10:12:00;;;;;;;4.18;1.92;;;13.70;58.90;;;;;;5034714;28;20407;-79
2021/05/07 10:14:28;;;;;;;2.60;1.42;;;13.50;57.40;;;;;;5034873;28;20028;-77
2021/05/07 10:16:54;;;;;;;3.58;1.60;;;13.80;57.00;;;;;;5031726;28;20899;-80
2021/05/07 10:19:19;;;;;;;3.40;1.77;;;13.50;56.80;;;;;;5032514;28;20438;-81
2021/05/07 10:21:47;;;;;;;3.15;1.52;;;13.60;55.30;;;;;;5054330;28;20032;-80
2021/05/07 10:24:14;;;;;;;3.58;2.05;;;13.70;55.60;;;;;;5049045;28;20055;-79
2021/05/07 10:26:42;;;;;;;5.97;1.67;;;14.30;54.30;;;;;;5047892;28;20024;-80
2021/05/07 10:29:20;;;;;;;4.38;2.28;;;14.10;54.90;;;;;;5038953;28;20452;-81
2021/05/07 10:31:56;;;;;;;4.13;2.10;;;14.10;55.30;;;;;;5025769;28;20084;-80
2021/05/07 10:34:23;;;;;;;5.55;2.08;;;13.90;56.20;;;;;;5043010;28;20036;-76
2021/05/07 10:36:52;;;;;;;4.85;2.03;;;13.80;57.50;;;;;;5038994;28;20025;-79
2021/05/07 10:39:31;;;;;;;5.80;2.70;;;13.80;56.50;;;;;;5038138;28;20033;-75
2021/05/07 10:42:02;;;;;;;4.80;2.60;;;13.60;55.60;;;;;;5042658;28;20040;-81
2021/05/07 10:44:40;;;;;;;5.75;2.70;;;13.90;56.10;;;;;;5029252;28;20025;-78
2021/05/07 10:47:07;;;;;;;4.18;2.38;;;14.00;54.30;;;;;;5034229;28;20045;-79
2021/05/07 10:49:37;;;;;;;4.13;2.38;;;13.90;54.70;;;;;;5043185;28;20885;-79
2021/05/07 10:52:05;;;;;;;7.15;2.63;;;13.50;55.10;;;;;;5053004;28;20025;-83
2021/05/07 10:54:54;;;;;;;4.80;2.33;;;13.50;55.60;;;;;;5057079;28;20172;-82
2021/05/07 10:57:30;;;;;;;4.03;2.20;;;13.50;56.40;;;;;;5028140;28;20053;-76
2021/05/07 10:59:58;;;;;;;3.60;2.20;;;15.70;56.60;;;;;;5028751;28;20029;-79
2021/05/07 11:02:24;;;;;;;6.95;2.70;;;;;;;;;;5050132;28;20074;-78
2021/05/07 11:04:50;;;;;;;5.47;2.90;;;13.90;53.80;;;;;;5050558;28;20474;-81
2021/05/07 11:07:30;;;;;;;5.70;2.92;;;14.90;54.60;;;;;;5030001;28;20053;-82
2021/05/07 11:10:14;;;;;;;5.80;3.50;;;14.20;53.30;;;;;;5042159;28;20056;-81
2021/05/07 11:12:44;;;;;;;5.20;3.15;;;14.10;54.80;;;;;;5047499;28;20044;-80
2021/05/07 11:15:19;;;;;;;5.57;2.90;;;13.80;55.30;;;;;;5043845;28;20117;-79
2021/05/07 11:17:45;;;;;;;6.28;3.60;;;;;;;;;;5048335;28;20041;-82
2021/05/07 11:20:11;;;;;;;6.63;3.63;;;13.50;57.30;;;;;;5034341;28;20032;-78
2021/05/07 11:22:40;;;;;;;5.65;3.58;;;;;;;;;;5030901;28;20032;-78
2021/05/07 11:25:07;;;;;;;5.53;3.20;;;13.20;60.30;;;;;;5040432;28;20459;-82
2021/05/07 11:27:33;;;;;;;7.18;3.88;;;13.10;62.30;;;;;;5054220;28;20024;-81
2021/05/07 11:29:58;;;;;;;6.97;3.58;;;13.50;57.90;;;;;;5045172;28;20101;-80
2021/05/07 11:32:25;;;;;;;6.25;3.10;;;;;;;;;;5035435;28;20499;-83
2021/05/07 11:35:19;;;;;;;6.68;3.33;;;13.80;56.40;;;;;;5056636;28;20032;-81
2021/05/07 11:37:45;;;;;;;4.93;2.90;;;13.70;56.90;;;;;;5017014;28;20088;-78
2021/05/07 11:40:15;;;;;;;5.45;2.60;;;14.10;56.50;;;;;;5049229;28;20025;-78
2021/05/07 11:42:45;;;;;;;4.18;2.50;;;14.60;51.10;;;;;;5028563;28;20064;-82
2021/05/07 11:45:18;;;;;;;6.28;2.50;;;14.60;51.50;;;;;;5030121;28;20038;-78
2021/05/07 11:47:45;;;;;;;4.35;2.38;;;14.70;51.00;;;;;;5053938;28;20029;-79
2021/05/07 11:50:17;;;;;;;3.75;2.33;;;14.70;50.10;;;;;;5031994;28;20036;-76
2021/05/07 11:52:45;;;;;;;4.20;2.53;;;14.60;48.40;;;;;;5025985;28;20411;-83
2021/05/07 11:55:17;;;;;;;5.60;2.83;;;14.60;48.00;;;;;;5050573;28;20037;-80
2021/05/07 11:57:43;;;;;;;4.20;2.17;;;;;;;;;;5044193;28;20091;-82
2021/05/07 12:00:10;;;;;;;3.35;2.05;;;14.40;48.50;;;;;;5055628;28;20024;-81
2021/05/07 12:02:37;;;;;;;4.00;2.25;;;14.50;49.50;;;;;;5062030;28;20025;-84
2021/05/07 12:05:04;;;;;;;3.50;2.20;;;14.60;49.50;;;;;;5055811;28;20033;-83
2021/05/07 12:07:33;;;;;;;4.57;2.40;;;15.00;46.20;;;;;;5048984;28;20033;-85
2021/05/07 12:10:00;;;;;;;3.35;2.03;;;15.00;47.60;;;;;;5056327;28;20032;-82
2021/05/07 12:12:27;;;;;;;5.93;2.50;;;15.10;46.10;;;;;;5046171;28;20025;-83
2021/05/07 12:15:10;;;;;;;4.95;2.60;;;15.10;46.60;;;;;;5041885;28;20097;-81
2021/05/07 12:17:47;;;;;;;4.88;2.75;;;15.30;46.10;;;;;;5038548;28;20618;-82
2021/05/07 12:20:14;;;;;;;3.67;2.15;;;15.40;45.90;;;;;;5037143;28;20059;-81
2021/05/07 12:22:41;;;;;;;3.97;2.08;;;16.70;47.30;;;;;;5053565;28;20105;-83
2021/05/07 12:25:11;;;;;;;3.72;2.22;;;15.50;44.20;;;;;;5037981;28;20847;-78
2021/05/07 12:27:39;;;;;;;3.08;2.05;;;;;;;;;;5043687;28;20035;-81
2021/05/07 12:30:29;;;;;;;4.65;2.22;;;15.50;43.10;;;;;;5045581;28;20496;-79
2021/05/07 12:33:11;;;;;;;4.07;2.08;;;15.20;45.10;;;;;;5038994;28;20096;-81
2021/05/07 12:35:49;;;;;;;3.88;2.00;;;15.10;45.20;;;;;;5038686;28;20092;-81
2021/05/07 12:38:34;;;;;;;13.98;7.35;;;14.70;47.00;;;;;;5036037;28;20105;-81
2021/05/07 12:40:59;;;;;;;4.07;2.50;;;14.80;47.40;;;;;;5039271;28;20032;-81
2021/05/07 12:43:27;;;;;;;4.60;2.38;;;14.70;47.20;;;;;;5042927;28;20024;-80
2021/05/07 12:45:53;;;;;;;6.53;2.58;;;14.50;47.40;;;;;;5028561;28;20515;-79
2021/05/07 12:48:19;;;;;;;4.95;2.25;;;;;;;;;;5037993;28;20040;-80
2021/05/07 12:50:46;;;;;;;4.38;2.30;;;14.30;46.90;;;;;;5039747;28;20038;-80
2021/05/07 12:53:19;;;;;;;4.82;2.30;;;17.80;49.50;;;;;;5045989;28;20033;-80
2021/05/07 12:55:45;;;;;;;3.28;1.92;;;14.60;44.90;;;;;;5034767;28;20059;-82
2021/05/07 12:58:11;;;;;;;7.22;2.33;;;14.60;45.30;;;;;;5051718;28;20029;-82
2021/05/07 13:00:38;;;;;;;4.65;2.45;;;15.50;45.60;;;;;;5042202;28;20028;-80
2021/05/07 13:03:04;;;;;;;3.78;1.98;;;14.90;45.50;;;;;;5040653;28;20025;-81